San Andres, Colombia

11:52 AM COT on July 02, 2015 (GMT -0500)
Gustavo Rojas Pinilla | | Change Station
CLOSE
Current Station
Airport
Location: San Andres,
Elevation: 20 ft
Nearby Weather Stations

Elev 20 ft 12.59 °N, 81.70 °W | Updated 52 minutes ago

Partly Cloudy
Partly Cloudy
84 °F
Feels Like 94 °F
N
14
Wind Variable Wind from East

Today
High -- | Low -- °F
--% Chance of Precip.
Yesterday
High -- | Low -- °F
Precip. -- in
6:05 AM 6:56 PM
Full, 100% visible
Pressure 29.89 in
Visibility 6.2 miles
Clouds Few 1600 ft
Heat Index 94 °F
Dew Point 77 °F
Humidity 79%
Rainfall 0.00 in
Snow Depth Not available.
UV 15 out of 12
Pollen Not available.
Air Quality Not available.
Flu Activity Not available.
METAR SKSP 021600Z 08012KT 9999 FEW016 29/25 A2989

More Conditions Fewer Conditions

Pressure 29.89 in
Visibility 6.2 miles
Clouds Few 1600 ft
Heat Index 94 °F
Dew Point 77 °F
Humidity 79%
Rainfall 0.00 in
Snow Depth Not available.
UV 15 out of 12
Pollen Not available.
Air Quality Not available.
Flu Activity Not available.
METAR SKSP 021600Z 08012KT 9999 FEW016 29/25 A2989

More Conditions Fewer Conditions

10-Day Weather Forecast

×

Almanac

Astronomy

Jul. 02, 2015 Rise Set
Actual Time
Civil Twilight
Nautical Twilight
Astronomical Twilight
Moon
Length of Visible Light
Length of Day
Tomorrow will be .
, % of the Moon is Illuminated

Today's Extremes

Country Highs Country Lows

Community

WunderPhotos

Upload Photos

1,834,498 photos uploaded!

WunderBlogs® & News

Nearby

Air Quality

  Air Quality AQ Index Pollutant
Not available.

Snow Depth

Station Depth Elevation

Earthquake Activity

City Distance Mag. Time & Date
Minimum magnitude displayed is 2.5.

Coastal Water Temperatures

Place Temperature

Stations

Nearby Weather Stations

Station Location Temp. Windchill Dew Point Humidity Wind Precip. Elev Updated Type